Time;durP1;ratioP1;P1;durP2;ratioP2;P2;SDS_P1;SDS_P2;PMS_P1;PMS_P2;Temp;Humidity;BMP_temperature;BMP_pressure;BME280_temperature;BME280_humidity;BME280_pressure;Samples;Min_cycle;Max_cycle;Signal;HPM_P1;HPM_P2
2021/10/11 00:02:06;;;;;;;14.63;14.15;;;;;;;;;;4989759;28;20034;-48
2021/10/11 00:04:33;;;;;;;14.93;14.07;;;;;;;;;;4985229;28;20046;-47
2021/10/11 00:07:00;;;;;;;16.15;15.50;;;;;;;;;;4987713;28;20507;-47
2021/10/11 00:09:26;;;;;;;16.70;16.38;;;;;;;;;;4990107;28;20539;-47
2021/10/11 00:11:54;;;;;;;15.43;14.90;;;;;;;;;;4989442;28;20915;-48
2021/10/11 00:14:21;;;;;;;15.25;14.73;;;;;;;;;;4986991;28;20148;-46
2021/10/11 00:16:48;;;;;;;15.85;15.30;;;;;;;;;;4982926;28;20101;-46
2021/10/11 00:19:14;;;;;;;14.52;13.85;;;;;;;;;;4989999;28;20046;-46
2021/10/11 00:21:41;;;;;;;14.65;13.80;;;;;;;;;;4982743;28;20062;-47
2021/10/11 00:24:08;;;;;;;17.83;17.25;;;;;;;;;;4990979;28;20097;-47
2021/10/11 00:26:35;;;;;;;14.27;13.95;;;;;;;;;;4986702;28;20054;-47
2021/10/11 00:29:02;;;;;;;17.75;17.13;;;;;;;;;;4988321;28;20054;-46
2021/10/11 00:31:29;;;;;;;15.52;14.82;;;;;;;;;;4989687;28;20046;-46
2021/10/11 00:33:58;;;;;;;15.20;14.77;;;;;;;;;;4989328;28;20112;-46
2021/10/11 00:36:25;;;;;;;16.77;16.23;;;;;;;;;;4990104;28;20038;-45
2021/10/11 00:38:52;;;;;;;14.95;14.50;;;;;;;;;;4987971;28;20057;-45
2021/10/11 00:41:18;;;;;;;15.13;14.60;;;;;;;;;;4989094;28;20137;-46
2021/10/11 00:43:47;;;;;;;15.70;15.13;;;;;;;;;;4989050;28;20133;-45
2021/10/11 00:46:13;;;;;;;16.42;16.13;;;;;;;;;;4989894;28;20042;-46
2021/10/11 00:48:40;;;;;;;14.73;14.10;;;;;;;;;;4989852;28;20188;-46
2021/10/11 00:51:07;;;;;;;16.20;15.80;;;;;;;;;;4988634;28;20034;-47
2021/10/11 00:53:34;;;;;;;14.38;14.18;;;;;;;;;;4988448;28;20041;-49
2021/10/11 00:56:01;;;;;;;14.63;14.23;;;;;;;;;;4986439;28;20156;-48
2021/10/11 00:58:28;;;;;;;15.00;14.70;;;;;;;;;;4987767;28;20078;-49
2021/10/11 01:00:55;;;;;;;14.15;13.55;;;;;;;;;;4990074;28;20038;-47
2021/10/11 01:03:21;;;;;;;14.35;13.95;;;;;;;;;;4994489;28;20042;-45
2021/10/11 01:05:48;;;;;;;15.38;14.93;;;;;;;;;;4995745;28;20041;-47
2021/10/11 01:08:15;;;;;;;13.88;13.57;;;;;;;;;;4992577;28;20046;-46
2021/10/11 01:10:43;;;;;;;13.93;13.60;;;;;;;;;;4995096;28;20548;-48
2021/10/11 01:13:10;;;;;;;13.50;13.38;;;;;;;;;;4994171;28;20039;-47
2021/10/11 01:15:37;;;;;;;13.63;13.30;;;;;;;;;;4994896;28;20057;-45
2021/10/11 01:18:04;;;;;;;14.32;13.48;;;;;;;;;;4994439;28;20536;-50
2021/10/11 01:20:31;;;;;;;12.15;11.95;;;;;;;;;;4993551;28;20494;-47
2021/10/11 01:22:58;;;;;;;13.77;13.48;;;;;;;;;;4995187;28;20513;-45
2021/10/11 01:25:25;;;;;;;13.85;13.55;;;;;;;;;;4993887;28;20113;-46
2021/10/11 01:27:51;;;;;;;13.10;12.80;;;;;;;;;;4987950;28;20108;-47
2021/10/11 01:30:21;;;;;;;12.80;12.60;;;;;;;;;;4987931;28;20483;-47
2021/10/11 01:32:48;;;;;;;15.02;14.38;;;;;;;;;;4986869;28;20042;-50
2021/10/11 01:35:15;;;;;;;13.90;13.70;;;;;;;;;;4993862;28;20165;-46
2021/10/11 01:37:43;;;;;;;15.07;14.68;;;;;;;;;;4989141;28;20037;-46
2021/10/11 01:40:10;;;;;;;14.50;13.95;;;;;;;;;;4990574;28;20046;-47
2021/10/11 01:42:37;;;;;;;15.82;15.30;;;;;;;;;;4990372;28;20121;-47
2021/10/11 01:45:05;;;;;;;13.95;13.63;;;;;;;;;;4992187;28;20125;-45
2021/10/11 01:47:31;;;;;;;13.90;12.80;;;;;;;;;;4996013;28;20450;-45
2021/10/11 01:49:58;;;;;;;7.80;7.70;;;;;;;;;;4993230;28;20446;-48
2021/10/11 01:52:26;;;;;;;11.75;11.30;;;;;;;;;;4990548;28;20049;-50
2021/10/11 01:54:53;;;;;;;11.25;10.95;;;;;;;;;;4994699;28;20046;-47
2021/10/11 01:57:19;;;;;;;7.13;6.75;;;;;;;;;;4983157;28;20125;-46
2021/10/11 01:59:46;;;;;;;5.20;5.10;;;;;;;;;;4994654;28;20038;-46
2021/10/11 02:02:13;;;;;;;4.15;4.15;;;;;;;;;;4992302;28;20064;-49
2021/10/11 02:04:40;;;;;;;3.55;3.45;;;;;;;;;;4986486;28;20466;-45
2021/10/11 02:07:06;;;;;;;5.00;4.75;;;;;;;;;;4991916;28;20062;-48
2021/10/11 02:09:33;;;;;;;8.07;7.78;;;;;;;;;;4994005;28;20139;-45
2021/10/11 02:12:00;;;;;;;8.15;7.82;;;;;;;;;;4987114;28;20042;-50
2021/10/11 02:14:27;;;;;;;7.28;7.05;;;;;;;;;;4982456;28;20368;-46
2021/10/11 02:16:54;;;;;;;6.55;6.38;;;;;;;;;;4990600;28;20156;-47
2021/10/11 02:19:20;;;;;;;5.35;5.15;;;;;;;;;;4989373;28;20074;-48
2021/10/11 02:21:47;;;;;;;6.75;6.45;;;;;;;;;;4991296;28;20047;-49
2021/10/11 02:24:14;;;;;;;7.53;7.43;;;;;;;;;;4991263;28;20035;-47
2021/10/11 02:26:41;;;;;;;9.00;8.73;;;;;;;;;;4990733;28;20039;-49
2021/10/11 02:29:09;;;;;;;13.00;12.82;;;;;;;;;;4987378;28;20150;-47
2021/10/11 02:31:36;;;;;;;12.48;12.10;;;;;;;;;;4987685;28;20046;-47
2021/10/11 02:34:03;;;;;;;10.88;10.73;;;;;;;;;;4989788;28;20038;-47
2021/10/11 02:36:29;;;;;;;12.38;12.15;;;;;;;;;;4986130;28;20085;-48
2021/10/11 02:38:56;;;;;;;11.98;11.65;;;;;;;;;;4988135;28;20030;-47
2021/10/11 02:41:23;;;;;;;12.57;12.30;;;;;;;;;;4990719;28;20038;-49
2021/10/11 02:43:49;;;;;;;11.30;11.10;;;;;;;;;;4988835;28;20112;-50
2021/10/11 02:46:17;;;;;;;13.10;12.80;;;;;;;;;;4983424;28;20585;-48
2021/10/11 02:48:43;;;;;;;13.80;13.60;;;;;;;;;;4989275;28;20101;-48
2021/10/11 02:51:10;;;;;;;15.25;15.07;;;;;;;;;;4990476;28;20614;-47
2021/10/11 02:53:37;;;;;;;14.73;14.52;;;;;;;;;;4992736;28;20126;-47
2021/10/11 02:56:03;;;;;;;13.25;13.15;;;;;;;;;;4990183;28;20058;-46
2021/10/11 02:58:30;;;;;;;13.00;12.90;;;;;;;;;;4992093;28;20092;-48
2021/10/11 03:00:57;;;;;;;14.63;14.45;;;;;;;;;;4987702;28;20062;-49
2021/10/11 03:03:24;;;;;;;14.95;14.85;;;;;;;;;;4990037;28;20038;-48
2021/10/11 03:05:50;;;;;;;14.25;14.05;;;;;;;;;;4992104;28;20057;-47
2021/10/11 03:08:17;;;;;;;13.88;13.45;;;;;;;;;;4990845;28;20142;-48
2021/10/11 03:10:44;;;;;;;14.65;14.55;;;;;;;;;;4985516;28;20059;-47
2021/10/11 03:13:10;;;;;;;13.30;13.00;;;;;;;;;;4985541;28;20050;-47
2021/10/11 03:15:37;;;;;;;13.90;13.80;;;;;;;;;;4989709;28;20073;-48
2021/10/11 03:18:04;;;;;;;13.65;13.55;;;;;;;;;;4988724;28;20146;-48
2021/10/11 03:20:31;;;;;;;14.73;14.43;;;;;;;;;;4989500;28;20054;-47
2021/10/11 03:22:58;;;;;;;15.32;14.93;;;;;;;;;;4989391;28;20085;-46
2021/10/11 03:25:25;;;;;;;19.25;18.15;;;;;;;;;;4989887;28;20121;-46
2021/10/11 03:27:51;;;;;;;14.15;13.95;;;;;;;;;;4987258;28;20129;-46
2021/10/11 03:30:18;;;;;;;13.40;13.10;;;;;;;;;;4988815;28;20050;-47
2021/10/11 03:32:45;;;;;;;13.43;13.13;;;;;;;;;;4978217;28;20053;-45
2021/10/11 03:35:12;;;;;;;13.30;12.90;;;;;;;;;;4989504;28;20063;-47
2021/10/11 03:37:39;;;;;;;18.67;17.77;;;;;;;;;;4990898;28;20444;-47
2021/10/11 03:40:06;;;;;;;14.93;14.63;;;;;;;;;;4990480;28;20489;-48
2021/10/11 03:42:33;;;;;;;15.25;14.95;;;;;;;;;;4988664;28;20042;-46
2021/10/11 03:44:59;;;;;;;12.20;12.10;;;;;;;;;;4989854;28;20058;-47
2021/10/11 03:47:26;;;;;;;9.20;8.98;;;;;;;;;;4989591;28;20069;-48
2021/10/11 03:49:53;;;;;;;10.80;10.70;;;;;;;;;;4990101;28;20058;-46
2021/10/11 03:52:19;;;;;;;11.77;11.65;;;;;;;;;;4989091;28;20096;-48
2021/10/11 03:54:46;;;;;;;13.32;13.05;;;;;;;;;;4987882;28;20037;-48
2021/10/11 03:57:13;;;;;;;12.32;12.23;;;;;;;;;;4982095;28;20045;-47
2021/10/11 03:59:40;;;;;;;14.70;14.50;;;;;;;;;;4988815;28;20081;-46
2021/10/11 04:02:07;;;;;;;14.32;14.13;;;;;;;;;;4989202;28;20070;-46
2021/10/11 04:04:35;;;;;;;14.07;13.68;;;;;;;;;;4988423;28;20026;-46
2021/10/11 04:07:07;;;;;;;13.65;13.55;;;;;;;;;;4987331;28;20125;-44
2021/10/11 04:09:34;;;;;;;12.25;12.00;;;;;;;;;;4984334;28;20636;-45
2021/10/11 04:12:06;;;;;;;10.60;10.40;;;;;;;;;;4986711;28;20046;-46
2021/10/11 04:14:34;;;;;;;14.15;14.05;;;;;;;;;;4976611;28;21109;-46
2021/10/11 04:17:01;;;;;;;12.98;12.88;;;;;;;;;;4990677;28;20554;-47
2021/10/11 04:19:27;;;;;;;12.38;12.27;;;;;;;;;;4987706;28;20065;-45
2021/10/11 04:21:54;;;;;;;14.13;13.93;;;;;;;;;;4984337;28;20415;-46
2021/10/11 04:24:21;;;;;;;12.05;11.93;;;;;;;;;;4986926;28;20084;-47
2021/10/11 04:26:47;;;;;;;10.20;10.00;;;;;;;;;;4981185;28;20046;-48
2021/10/11 04:29:14;;;;;;;12.25;12.15;;;;;;;;;;4988629;28;20057;-47
2021/10/11 04:31:41;;;;;;;12.57;12.35;;;;;;;;;;4987484;28;20083;-48
2021/10/11 04:34:09;;;;;;;12.10;11.82;;;;;;;;;;4987857;28;20046;-47
2021/10/11 04:36:36;;;;;;;5.28;5.05;;;;;;;;;;4986995;28;20046;-48
2021/10/11 04:39:03;;;;;;;6.10;5.95;;;;;;;;;;4980950;28;20051;-47
2021/10/11 04:41:30;;;;;;;8.20;7.93;;;;;;;;;;4990375;28;20097;-45
2021/10/11 04:43:57;;;;;;;6.22;6.22;;;;;;;;;;4989906;28;20030;-49
2021/10/11 04:46:24;;;;;;;5.68;5.57;;;;;;;;;;5000042;28;20112;-46
2021/10/11 04:48:51;;;;;;;7.32;7.22;;;;;;;;;;4988180;28;20098;-47
2021/10/11 04:51:18;;;;;;;10.15;10.05;;;;;;;;;;4983656;28;20126;-47
2021/10/11 04:53:45;;;;;;;9.35;8.93;;;;;;;;;;4988831;28;20046;-46
2021/10/11 04:56:11;;;;;;;11.93;11.43;;;;;;;;;;4977636;28;20103;-46
2021/10/11 04:58:38;;;;;;;10.32;9.93;;;;;;;;;;4986003;28;20038;-50
2021/10/11 05:01:05;;;;;;;8.77;8.68;;;;;;;;;;4982043;28;20034;-45
2021/10/11 05:03:31;;;;;;;7.50;7.40;;;;;;;;;;4989613;28;20446;-50
2021/10/11 05:05:58;;;;;;;3.97;3.88;;;;;;;;;;4989126;28;20042;-50
2021/10/11 05:08:25;;;;;;;8.38;8.23;;;;;;;;;;4980096;28;20474;-46
2021/10/11 05:10:52;;;;;;;6.90;6.82;;;;;;;;;;4982490;28;20490;-49
2021/10/11 05:13:18;;;;;;;8.57;8.48;;;;;;;;;;4978041;28;20038;-45
2021/10/11 05:15:45;;;;;;;11.00;10.88;;;;;;;;;;4976851;28;20043;-47
2021/10/11 05:18:12;;;;;;;6.05;5.88;;;;;;;;;;4985589;28;20125;-47
2021/10/11 05:20:45;;;;;;;8.48;8.38;;;;;;;;;;4988075;28;20096;-46
2021/10/11 05:23:11;;;;;;;8.02;7.82;;;;;;;;;;4988346;28;20442;-47
2021/10/11 05:25:38;;;;;;;8.45;8.25;;;;;;;;;;4986501;28;20041;-51
2021/10/11 05:28:05;;;;;;;10.82;10.23;;;;;;;;;;4988585;28;20128;-53
2021/10/11 05:30:32;;;;;;;3.75;3.55;;;;;;;;;;4985067;28;20364;-54
2021/10/11 05:32:59;;;;;;;10.02;9.93;;;;;;;;;;4987410;28;20046;-54
2021/10/11 05:35:26;;;;;;;10.27;10.07;;;;;;;;;;4984629;28;20074;-54
2021/10/11 05:37:53;;;;;;;9.07;8.82;;;;;;;;;;4976212;28;20043;-54
2021/10/11 05:40:19;;;;;;;10.43;10.27;;;;;;;;;;4988767;28;20156;-54
2021/10/11 05:42:46;;;;;;;10.77;10.68;;;;;;;;;;4986901;28;20554;-54
2021/10/11 05:45:13;;;;;;;12.68;12.43;;;;;;;;;;4984215;28;20062;-54
2021/10/11 05:47:39;;;;;;;13.85;13.65;;;;;;;;;;4986082;28;20371;-54
2021/10/11 05:50:09;;;;;;;13.52;12.98;;;;;;;;;;4991661;28;20546;-54
2021/10/11 05:52:36;;;;;;;12.75;12.57;;;;;;;;;;4989830;28;20066;-54
2021/10/11 05:55:03;;;;;;;12.07;11.73;;;;;;;;;;4990970;28;20368;-54
2021/10/11 05:57:29;;;;;;;13.43;13.13;;;;;;;;;;4992242;28;20053;-54
2021/10/11 05:59:56;;;;;;;13.57;13.27;;;;;;;;;;4988649;28;20038;-53
2021/10/11 06:02:23;;;;;;;10.65;10.45;;;;;;;;;;4981675;28;20070;-53
2021/10/11 06:04:49;;;;;;;12.80;12.60;;;;;;;;;;4991696;28;20045;-54
2021/10/11 06:07:16;;;;;;;11.95;11.85;;;;;;;;;;4977872;28;20109;-53
2021/10/11 06:09:43;;;;;;;12.82;12.73;;;;;;;;;;4993005;28;20047;-54
2021/10/11 06:12:10;;;;;;;13.93;13.75;;;;;;;;;;4991774;28;20050;-54
2021/10/11 06:14:57;;;;;;;13.10;13.00;;;;;;;;;;4983891;28;20038;-54
2021/10/11 06:17:23;;;;;;;13.70;13.45;;;;;;;;;;4987777;28;20078;-53
2021/10/11 06:19:52;;;;;;;11.40;11.30;;;;;;;;;;4987119;28;20070;-54
2021/10/11 06:22:19;;;;;;;11.10;11.00;;;;;;;;;;4990746;28;20085;-54
2021/10/11 06:24:45;;;;;;;12.80;12.30;;;;;;;;;;4991549;28;20113;-53
2021/10/11 06:27:12;;;;;;;13.07;12.80;;;;;;;;;;4992908;28;20093;-54
2021/10/11 06:29:39;;;;;;;13.80;13.70;;;;;;;;;;4990661;28;20525;-52
2021/10/11 06:32:06;;;;;;;12.88;12.60;;;;;;;;;;4991269;28;20042;-54
2021/10/11 06:34:33;;;;;;;14.60;14.40;;;;;;;;;;4991542;28;20046;-54
2021/10/11 06:37:00;;;;;;;13.65;13.55;;;;;;;;;;4990530;28;20527;-54
2021/10/11 06:39:26;;;;;;;12.65;12.55;;;;;;;;;;4989578;28;20387;-52
2021/10/11 06:41:53;;;;;;;12.25;12.15;;;;;;;;;;4988057;28;20043;-53
2021/10/11 06:44:20;;;;;;;11.90;11.80;;;;;;;;;;4989405;28;20058;-54
2021/10/11 06:46:47;;;;;;;12.82;12.73;;;;;;;;;;4990460;28;20096;-53
2021/10/11 06:49:14;;;;;;;13.88;13.77;;;;;;;;;;4990563;28;20074;-52
2021/10/11 06:51:40;;;;;;;13.98;13.88;;;;;;;;;;4992366;28;20538;-54
2021/10/11 06:54:07;;;;;;;14.30;14.02;;;;;;;;;;4989220;28;20042;-54
2021/10/11 06:56:34;;;;;;;13.63;13.52;;;;;;;;;;4980654;28;20047;-51
2021/10/11 06:59:00;;;;;;;14.00;13.70;;;;;;;;;;4988905;28;20034;-53
2021/10/11 07:01:28;;;;;;;13.15;13.05;;;;;;;;;;4988943;28;20039;-53
2021/10/11 07:03:55;;;;;;;13.68;13.57;;;;;;;;;;4987617;28;20121;-54
2021/10/11 07:06:23;;;;;;;13.65;13.25;;;;;;;;;;4985607;28;20038;-54
2021/10/11 07:08:50;;;;;;;12.90;12.80;;;;;;;;;;4990038;28;20375;-53
2021/10/11 07:11:17;;;;;;;13.77;13.68;;;;;;;;;;4989785;28;20046;-54
2021/10/11 07:13:44;;;;;;;11.88;11.77;;;;;;;;;;4977107;28;20138;-54
2021/10/11 07:16:10;;;;;;;13.07;12.88;;;;;;;;;;4989950;28;20438;-53
2021/10/11 07:18:38;;;;;;;13.02;12.73;;;;;;;;;;4989509;28;20038;-53
2021/10/11 07:21:06;;;;;;;12.88;12.77;;;;;;;;;;4979949;28;20030;-53
2021/10/11 07:23:33;;;;;;;11.77;11.68;;;;;;;;;;4988663;28;20045;-54
2021/10/11 07:26:01;;;;;;;11.93;11.77;;;;;;;;;;4990421;28;20084;-54
2021/10/11 07:28:28;;;;;;;13.27;13.00;;;;;;;;;;4988079;28;20084;-54
2021/10/11 07:30:55;;;;;;;12.73;12.63;;;;;;;;;;4982595;28;20557;-52
2021/10/11 07:33:22;;;;;;;14.73;14.32;;;;;;;;;;4991252;28;20113;-54
2021/10/11 07:35:49;;;;;;;15.10;14.52;;;;;;;;;;4989573;28;20089;-54
2021/10/11 07:38:16;;;;;;;14.05;13.80;;;;;;;;;;5016772;28;20077;-54
2021/10/11 07:40:50;;;;;;;12.73;12.43;;;;;;;;;;4990179;28;20071;-54
2021/10/11 07:43:16;;;;;;;13.38;12.95;;;;;;;;;;4989754;28;20592;-52
2021/10/11 07:45:43;;;;;;;14.02;13.82;;;;;;;;;;4978711;28;20149;-53
2021/10/11 07:48:10;;;;;;;12.45;12.15;;;;;;;;;;4987589;28;20041;-53
2021/10/11 07:50:37;;;;;;;13.85;13.65;;;;;;;;;;4979239;28;20042;-54
2021/10/11 07:53:04;;;;;;;14.18;13.80;;;;;;;;;;4989913;28;20090;-53
2021/10/11 07:55:31;;;;;;;12.85;12.65;;;;;;;;;;4989767;28;20430;-52
2021/10/11 07:57:57;;;;;;;14.02;13.73;;;;;;;;;;4989276;28;20045;-54
2021/10/11 08:00:25;;;;;;;13.55;13.35;;;;;;;;;;4987666;28;20042;-52
2021/10/11 08:02:51;;;;;;;13.00;12.68;;;;;;;;;;4986869;28;20070;-54
2021/10/11 08:05:19;;;;;;;12.60;12.40;;;;;;;;;;4986593;28;20134;-53
2021/10/11 08:07:45;;;;;;;12.32;12.05;;;;;;;;;;4989747;28;20042;-53
2021/10/11 08:10:12;;;;;;;13.40;13.20;;;;;;;;;;4990500;28;20046;-54
2021/10/11 08:12:39;;;;;;;13.57;12.88;;;;;;;;;;4985673;28;20050;-53
2021/10/11 08:15:07;;;;;;;11.27;11.18;;;;;;;;;;4986452;28;20075;-52
2021/10/11 08:17:34;;;;;;;13.27;13.05;;;;;;;;;;4987148;28;20042;-54
2021/10/11 08:20:01;;;;;;;12.55;12.27;;;;;;;;;;4987766;28;20121;-53
2021/10/11 08:22:28;;;;;;;13.32;12.88;;;;;;;;;;4990977;28;20085;-53
2021/10/11 08:24:55;;;;;;;12.02;11.82;;;;;;;;;;4989129;28;20430;-51
2021/10/11 08:27:22;;;;;;;13.70;13.52;;;;;;;;;;4989546;28;20050;-53
2021/10/11 08:29:51;;;;;;;12.35;12.07;;;;;;;;;;4987699;28;20487;-54
2021/10/11 08:32:19;;;;;;;12.93;12.35;;;;;;;;;;4990338;28;20042;-53
2021/10/11 08:34:46;;;;;;;12.55;12.25;;;;;;;;;;4988128;28;20042;-53
2021/10/11 08:37:13;;;;;;;11.85;11.20;;;;;;;;;;4987344;28;20046;-54
2021/10/11 08:39:41;;;;;;;13.80;13.50;;;;;;;;;;4989702;28;20053;-54
2021/10/11 08:42:08;;;;;;;12.60;12.43;;;;;;;;;;4988313;28;20062;-52
2021/10/11 08:44:35;;;;;;;12.75;12.55;;;;;;;;;;4990803;28;20993;-53
2021/10/11 08:47:02;;;;;;;13.32;13.23;;;;;;;;;;4989148;28;20694;-52
2021/10/11 08:49:29;;;;;;;14.10;13.65;;;;;;;;;;4989220;28;20066;-53
2021/10/11 08:51:56;;;;;;;14.23;13.93;;;;;;;;;;4988952;28;20069;-54
2021/10/11 08:54:23;;;;;;;14.27;13.95;;;;;;;;;;4988854;28;20055;-54
2021/10/11 08:56:50;;;;;;;14.60;14.40;;;;;;;;;;4985085;28;20093;-53
2021/10/11 08:59:28;;;;;;;15.32;15.02;;;;;;;;;;4986147;28;20057;-53
2021/10/11 09:02:02;;;;;;;14.77;14.38;;;;;;;;;;4974318;28;20415;-52
2021/10/11 09:04:29;;;;;;;13.98;13.77;;;;;;;;;;4987414;28;20475;-53
2021/10/11 09:07:06;;;;;;;12.80;12.65;;;;;;;;;;4988029;28;20490;-53
2021/10/11 09:09:39;;;;;;;14.30;13.73;;;;;;;;;;4986630;28;20073;-54
2021/10/11 09:12:15;;;;;;;15.73;15.45;;;;;;;;;;4987354;28;20065;-52
2021/10/11 09:14:45;;;;;;;14.45;14.13;;;;;;;;;;4976493;28;20050;-54
2021/10/11 09:17:20;;;;;;;14.73;14.43;;;;;;;;;;4986926;28;20053;-53
2021/10/11 09:19:57;;;;;;;13.40;13.18;;;;;;;;;;4987008;28;20030;-52
2021/10/11 09:22:30;;;;;;;15.07;14.68;;;;;;;;;;4989928;28;20042;-54
2021/10/11 09:24:58;;;;;;;13.25;13.05;;;;;;;;;;4993438;28;20490;-53
2021/10/11 09:27:24;;;;;;;15.55;15.15;;;;;;;;;;4993532;28;20034;-53
2021/10/11 09:29:51;;;;;;;15.00;14.60;;;;;;;;;;4992784;28;20081;-53
2021/10/11 09:32:18;;;;;;;13.25;12.82;;;;;;;;;;4991801;28;20170;-54
2021/10/11 09:34:44;;;;;;;14.25;13.90;;;;;;;;;;4993680;28;20494;-53
2021/10/11 09:37:15;;;;;;;15.48;14.63;;;;;;;;;;4991002;28;20038;-53
2021/10/11 09:39:42;;;;;;;14.68;14.43;;;;;;;;;;4989904;28;20455;-54
2021/10/11 09:42:14;;;;;;;14.35;13.90;;;;;;;;;;4983604;28;20047;-54
2021/10/11 09:45:01;;;;;;;14.82;14.13;;;;;;;;;;4987193;28;20440;-53
2021/10/11 09:47:38;;;;;;;13.70;13.50;;;;;;;;;;4978035;28;20481;-52
2021/10/11 09:50:07;;;;;;;14.60;14.20;;;;;;;;;;4993070;28;20097;-54
2021/10/11 09:52:35;;;;;;;15.65;15.38;;;;;;;;;;4986213;28;20129;-54
2021/10/11 09:55:02;;;;;;;14.60;13.95;;;;;;;;;;4987875;28;20035;-54
2021/10/11 09:57:32;;;;;;;14.88;14.57;;;;;;;;;;4988490;28;20046;-53
2021/10/11 10:00:00;;;;;;;13.55;13.15;;;;;;;;;;4987586;28;20042;-53
2021/10/11 10:02:28;;;;;;;14.50;14.10;;;;;;;;;;4991897;28;21850;-52
2021/10/11 10:04:56;;;;;;;13.45;12.82;;;;;;;;;;4992114;28;20038;-54
2021/10/11 10:07:25;;;;;;;12.52;12.18;;;;;;;;;;4991443;28;20045;-53
2021/10/11 10:09:54;;;;;;;13.55;12.82;;;;;;;;;;4988937;28;20109;-53
2021/10/11 10:12:21;;;;;;;14.07;13.38;;;;;;;;;;4992804;28;20050;-53
2021/10/11 10:15:00;;;;;;;13.88;13.48;;;;;;;;;;4991885;28;20053;-53
2021/10/11 10:17:31;;;;;;;14.23;13.82;;;;;;;;;;4990695;28;20046;-53
2021/10/11 10:20:04;;;;;;;14.25;13.88;;;;;;;;;;4984195;28;20035;-53
2021/10/11 10:22:31;;;;;;;15.13;14.45;;;;;;;;;;4985565;28;20066;-53
2021/10/11 10:25:07;;;;;;;15.48;14.82;;;;;;;;;;5002412;28;20386;-53
2021/10/11 10:27:36;;;;;;;15.60;14.43;;;;;;;;;;4989967;28;20712;-53
2021/10/11 10:30:17;;;;;;;12.45;11.93;;;;;;;;;;4989170;28;20046;-53
2021/10/11 10:33:04;;;;;;;11.50;11.15;;;;;;;;;;4994204;28;20072;-54
2021/10/11 10:35:33;;;;;;;13.80;12.93;;;;;;;;;;4988103;28;20039;-53
2021/10/11 10:38:00;;;;;;;13.07;12.88;;;;;;;;;;4990026;28;20458;-54
2021/10/11 10:40:28;;;;;;;14.98;14.18;;;;;;;;;;4991702;28;20805;-53
2021/10/11 10:43:05;;;;;;;14.55;14.25;;;;;;;;;;4992849;28;20499;-54
2021/10/11 10:45:32;;;;;;;14.32;14.02;;;;;;;;;;4991517;28;20539;-53
2021/10/11 10:48:00;;;;;;;12.18;11.65;;;;;;;;;;4990113;28;20039;-53
2021/10/11 10:50:28;;;;;;;13.65;13.00;;;;;;;;;;4994108;28;20078;-50
2021/10/11 10:52:56;;;;;;;12.77;12.43;;;;;;;;;;4989886;28;20078;-53
2021/10/11 10:55:24;;;;;;;8.40;7.82;;;;;;;;;;4987238;28;20052;-53
2021/10/11 10:57:58;;;;;;;13.32;13.13;;;;;;;;;;4995400;28;20070;-52
2021/10/11 11:00:24;;;;;;;12.57;11.90;;;;;;;;;;4989646;28;20089;-53
2021/10/11 11:02:52;;;;;;;9.18;8.55;;;;;;;;;;4991946;28;20124;-52
2021/10/11 11:05:19;;;;;;;8.43;7.90;;;;;;;;;;4990032;28;20038;-52
2021/10/11 11:07:50;;;;;;;4.47;3.95;;;;;;;;;;4990789;28;20097;-53
2021/10/11 11:10:18;;;;;;;9.93;7.68;;;;;;;;;;4991129;28;20050;-53
2021/10/11 11:12:49;;;;;;;8.52;8.23;;;;;;;;;;4980711;28;20549;-54
2021/10/11 11:15:36;;;;;;;7.78;7.47;;;;;;;;;;4991010;28;20050;-53
2021/10/11 11:18:08;;;;;;;9.27;8.90;;;;;;;;;;4987577;28;20042;-54
2021/10/11 11:20:37;;;;;;;11.98;11.38;;;;;;;;;;4990181;28;20034;-54
2021/10/11 11:23:06;;;;;;;13.35;13.07;;;;;;;;;;4990761;28;20050;-53
2021/10/11 11:25:38;;;;;;;11.55;11.25;;;;;;;;;;4981306;28;20509;-53
2021/10/11 11:28:05;;;;;;;10.73;10.38;;;;;;;;;;4990492;28;20383;-53
2021/10/11 11:30:33;;;;;;;11.95;11.48;;;;;;;;;;4990450;28;20056;-53
2021/10/11 11:33:07;;;;;;;10.90;10.32;;;;;;;;;;4989565;28;20056;-52
2021/10/11 11:35:41;;;;;;;10.93;10.43;;;;;;;;;;4991761;28;20392;-54
2021/10/11 11:38:09;;;;;;;12.43;11.45;;;;;;;;;;4988412;28;20426;-53
2021/10/11 11:40:38;;;;;;;12.38;11.95;;;;;;;;;;4985555;28;20384;-52
2021/10/11 11:43:06;;;;;;;12.98;12.23;;;;;;;;;;4987027;28;20086;-51
2021/10/11 11:45:40;;;;;;;14.30;13.35;;;;;;;;;;4989158;28;20035;-53
2021/10/11 11:48:09;;;;;;;12.20;11.80;;;;;;;;;;4990798;28;20061;-54
2021/10/11 11:50:36;;;;;;;14.23;13.57;;;;;;;;;;4990221;28;20553;-53
2021/10/11 11:53:05;;;;;;;14.93;14.60;;;;;;;;;;4976346;28;20072;-53
2021/10/11 11:55:33;;;;;;;13.73;13.10;;;;;;;;;;4986372;28;20491;-52
2021/10/11 11:58:00;;;;;;;11.55;10.75;;;;;;;;;;4977034;28;20388;-53
2021/10/11 12:00:30;;;;;;;13.27;12.88;;;;;;;;;;4990685;28;20089;-53
2021/10/11 12:02:58;;;;;;;15.48;14.70;;;;;;;;;;4987875;28;20089;-52
2021/10/11 12:05:26;;;;;;;13.48;12.57;;;;;;;;;;4991160;28;20049;-53
2021/10/11 12:07:52;;;;;;;14.90;14.38;;;;;;;;;;4986583;28;20652;-53
2021/10/11 12:10:22;;;;;;;14.10;13.38;;;;;;;;;;4987052;28;20477;-52
2021/10/11 12:12:57;;;;;;;13.38;12.48;;;;;;;;;;4990405;28;20053;-53
2021/10/11 12:15:24;;;;;;;8.13;7.70;;;;;;;;;;4990069;28;20046;-53
2021/10/11 12:18:00;;;;;;;14.65;13.98;;;;;;;;;;4989635;28;20100;-52
2021/10/11 12:20:37;;;;;;;9.68;9.35;;;;;;;;;;4987632;28;20129;-53
2021/10/11 12:23:04;;;;;;;8.55;7.82;;;;;;;;;;4989235;28;20431;-53
2021/10/11 12:25:32;;;;;;;10.82;10.02;;;;;;;;;;4989442;28;20049;-53
2021/10/11 12:28:16;;;;;;;12.20;11.73;;;;;;;;;;4986938;28;20046;-53
2021/10/11 12:30:42;;;;;;;;;;;;;;;;;;4989230;28;20391;-53
2021/10/11 12:33:18;;;;;;;12.23;11.98;;;;;;;;;;4988943;28;19922;-53
2021/10/11 12:35:46;;;;;;;13.40;12.77;;;;;;;;;;4988382;28;20043;-53
2021/10/11 12:38:14;;;;;;;11.40;11.10;;;;;;;;;;4989106;28;20129;-49
2021/10/11 12:40:42;;;;;;;11.88;11.35;;;;;;;;;;4989381;28;20048;-45
2021/10/11 12:43:16;;;;;;;11.55;10.98;;;;;;;;;;4989311;28;20100;-45
2021/10/11 12:45:44;;;;;;;11.73;11.32;;;;;;;;;;4985954;28;20494;-44
2021/10/11 12:48:11;;;;;;;10.68;9.82;;;;;;;;;;4986276;28;20052;-44
2021/10/11 12:50:38;;;;;;;10.95;10.65;;;;;;;;;;4984394;28;20053;-49
2021/10/11 12:53:07;;;;;;;9.90;9.57;;;;;;;;;;4982691;28;20366;-45
2021/10/11 12:55:34;;;;;;;8.93;8.52;;;;;;;;;;4985547;28;20070;-47
2021/10/11 12:58:06;;;;;;;4.40;4.30;;;;;;;;;;4984490;28;20042;-46
2021/10/11 13:00:34;;;;;;;6.18;3.72;;;;;;;;;;4980290;28;20420;-45
2021/10/11 13:03:02;;;;;;;4.00;3.60;;;;;;;;;;4988984;28;20042;-46
2021/10/11 13:05:29;;;;;;;3.90;3.60;;;;;;;;;;4987680;28;20042;-45
2021/10/11 13:07:56;;;;;;;3.17;2.60;;;;;;;;;;4990357;28;20137;-43
2021/10/11 13:10:23;;;;;;;2.45;2.25;;;;;;;;;;4987180;28;20038;-45
2021/10/11 13:12:50;;;;;;;3.10;2.42;;;;;;;;;;4982945;28;20058;-45
2021/10/11 13:15:17;;;;;;;2.60;2.45;;;;;;;;;;4988322;28;20049;-47
2021/10/11 13:17:43;;;;;;;3.10;2.88;;;;;;;;;;4990800;28;20042;-46
2021/10/11 13:20:10;;;;;;;5.25;3.05;;;;;;;;;;4988896;28;20460;-44
2021/10/11 13:22:37;;;;;;;7.07;2.03;;;;;;;;;;4987053;28;20062;-45
2021/10/11 13:25:05;;;;;;;3.78;2.00;;;;;;;;;;4984680;28;20049;-44
2021/10/11 13:27:32;;;;;;;1.77;1.70;;;;;;;;;;4988371;28;20041;-46
2021/10/11 14:27:58;;;;;;;3.40;2.03;;;;;;;;;;4977705;28;20049;-49
2021/10/11 16:06:08;;;;;;;1.25;1.25;;;;;;;;;;4988787;28;20042;-45
2021/10/11 16:08:35;;;;;;;1.25;1.20;;;;;;;;;;4989267;28;20038;-45
2021/10/11 16:11:02;;;;;;;1.17;1.10;;;;;;;;;;4993073;28;20039;-45
2021/10/11 16:13:28;;;;;;;1.55;1.45;;;;;;;;;;4986169;28;20361;-43
2021/10/11 16:15:55;;;;;;;3.58;2.33;;;;;;;;;;4988958;28;20054;-44
2021/10/11 16:18:31;;;;;;;1.50;1.20;;;;;;;;;;4989238;28;20475;-44
2021/10/11 16:20:59;;;;;;;1.40;1.40;;;;;;;;;;4989137;28;20042;-45
2021/10/11 16:23:27;;;;;;;3.60;3.50;;;;;;;;;;4989913;28;20081;-45
2021/10/11 16:25:54;;;;;;;2.55;1.27;;;;;;;;;;4988898;28;20039;-46
2021/10/11 16:28:22;;;;;;;1.30;1.30;;;;;;;;;;4990472;28;20112;-46
2021/10/11 16:30:48;;;;;;;1.83;1.73;;;;;;;;;;4988036;28;20042;-44
2021/10/11 16:33:16;;;;;;;1.10;1.10;;;;;;;;;;4989109;28;20521;-44
2021/10/11 16:35:43;;;;;;;1.30;1.20;;;;;;;;;;5001247;28;20557;-45
2021/10/11 16:38:10;;;;;;;3.45;1.58;;;;;;;;;;4984438;28;20070;-45
2021/10/11 16:40:37;;;;;;;1.73;1.40;;;;;;;;;;4989218;28;20482;-44
2021/10/11 16:43:04;;;;;;;1.33;1.23;;;;;;;;;;4985583;28;20515;-45
2021/10/11 16:45:31;;;;;;;1.70;1.60;;;;;;;;;;4987966;28;20112;-45
2021/10/11 16:47:58;;;;;;;1.73;1.63;;;;;;;;;;4989574;28;20442;-47
2021/10/11 16:50:25;;;;;;;4.20;3.42;;;;;;;;;;4981484;28;20093;-44
2021/10/11 16:52:52;;;;;;;1.88;1.77;;;;;;;;;;4980746;28;20081;-43
2021/10/11 16:55:19;;;;;;;2.17;2.08;;;;;;;;;;4985926;28;20088;-45
2021/10/11 16:57:45;;;;;;;2.55;1.58;;;;;;;;;;4986838;28;20042;-45
2021/10/11 17:00:13;;;;;;;1.65;1.23;;;;;;;;;;4987322;28;20042;-46
2021/10/11 17:02:42;;;;;;;2.03;1.92;;;;;;;;;;4982211;28;20048;-46